createdAt,value
2022-12-26T00:01:33.333Z,17.60
2022-12-26T00:04:03.296Z,17.63
2022-12-26T00:06:32.795Z,15.73
2022-12-26T00:09:04.092Z,15.57
2022-12-26T00:11:32.661Z,16.13
2022-12-26T00:14:07.140Z,17.00
2022-12-26T00:16:36.230Z,16.83
2022-12-26T00:19:05.824Z,15.20
2022-12-26T00:21:34.593Z,17.03
2022-12-26T00:24:03.858Z,16.30
2022-12-26T00:26:35.766Z,14.27
2022-12-26T00:29:04.071Z,15.03
2022-12-26T00:31:35.164Z,14.93
2022-12-26T00:34:05.120Z,14.00
2022-12-26T00:36:35.565Z,14.47
2022-12-26T00:39:05.527Z,15.37
2022-12-26T00:41:34.589Z,13.27
2022-12-26T00:44:03.247Z,13.50
2022-12-26T00:46:32.408Z,12.93
2022-12-26T00:49:01.046Z,12.30
2022-12-26T00:51:30.628Z,11.23
2022-12-26T00:53:58.848Z,11.70
2022-12-26T00:56:27.034Z,12.10
2022-12-26T00:58:55.221Z,11.57
2022-12-26T01:01:24.936Z,12.07
2022-12-26T01:03:53.801Z,11.67
2022-12-26T01:06:22.009Z,10.77
2022-12-26T01:08:51.524Z,10.60
2022-12-26T01:11:39.971Z,10.57
2022-12-26T01:14:11.970Z,10.13
2022-12-26T01:16:41.965Z,10.53
2022-12-26T01:19:12.850Z,10.47
2022-12-26T01:21:42.959Z,10.33
2022-12-26T01:24:13.700Z,9.57
2022-12-26T01:26:41.936Z,10.13
2022-12-26T01:29:10.641Z,10.70
2022-12-26T01:31:39.040Z,12.67
2022-12-26T01:34:07.467Z,10.73
2022-12-26T01:36:35.769Z,10.30
2022-12-26T01:39:03.993Z,10.30
2022-12-26T01:41:33.659Z,10.63
2022-12-26T01:44:05.044Z,12.67
2022-12-26T01:46:43.091Z,11.03
2022-12-26T01:49:20.800Z,10.93
2022-12-26T01:51:57.830Z,10.70
2022-12-26T01:54:37.396Z,12.17
2022-12-26T01:57:13.446Z,13.00
2022-12-26T01:59:43.309Z,13.13
2022-12-26T02:02:12.729Z,11.80
2022-12-26T02:05:05.331Z,15.33
2022-12-26T02:07:35.861Z,14.80
2022-12-26T02:10:07.215Z,12.17
2022-12-26T02:12:39.119Z,11.90
2022-12-26T02:15:14.566Z,11.50
2022-12-26T02:17:43.915Z,11.43
2022-12-26T02:20:21.710Z,12.20
2022-12-26T02:23:35.779Z,13.60
2022-12-26T02:26:59.275Z,12.23
2022-12-26T02:30:07.184Z,12.70
2022-12-26T02:33:17.021Z,13.60
2022-12-26T02:36:28.210Z,13.87
2022-12-26T02:39:44.094Z,13.67
2022-12-26T02:42:22.290Z,14.13
2022-12-26T02:45:15.710Z,13.73
2022-12-26T02:47:55.991Z,13.87
2022-12-26T02:50:57.781Z,13.83
2022-12-26T02:53:55.857Z,14.03
2022-12-26T02:56:49.959Z,17.83
2022-12-26T02:59:54.609Z,13.53
2022-12-26T03:02:50.041Z,13.03
2022-12-26T03:05:45.815Z,12.30
2022-12-26T03:08:40.163Z,13.50
2022-12-26T03:11:22.646Z,13.77
2022-12-26T03:13:54.734Z,13.63
2022-12-26T03:16:43.515Z,12.43
2022-12-26T03:19:15.748Z,12.93
2022-12-26T03:21:48.388Z,15.90
2022-12-26T03:24:18.902Z,13.90
2022-12-26T03:26:53.961Z,13.20
2022-12-26T03:29:42.698Z,14.00
2022-12-26T03:32:13.794Z,14.23
2022-12-26T03:34:45.556Z,12.43
2022-12-26T03:37:50.401Z,12.80
2022-12-26T03:41:11.497Z,13.80
2022-12-26T03:44:17.446Z,13.10
2022-12-26T03:47:19.997Z,13.17
2022-12-26T03:50:13.985Z,12.27
2022-12-26T03:53:14.319Z,12.07
2022-12-26T03:56:05.658Z,11.17
2022-12-26T03:58:59.636Z,11.43
2022-12-26T04:01:50.846Z,11.93
2022-12-26T04:04:40.598Z,13.43
2022-12-26T04:07:32.863Z,13.10
2022-12-26T04:10:42.544Z,13.10
2022-12-26T04:13:38.506Z,14.83
2022-12-26T04:16:37.153Z,15.30
2022-12-26T04:19:25.571Z,14.07
2022-12-26T04:22:21.594Z,14.80
2022-12-26T04:25:16.997Z,14.97
2022-12-26T04:28:04.140Z,13.17
2022-12-26T04:30:56.842Z,14.17
2022-12-26T04:33:49.778Z,15.13
2022-12-26T04:36:44.204Z,15.53
2022-12-26T04:39:34.953Z,14.90
2022-12-26T04:42:22.553Z,14.53
2022-12-26T04:44:53.649Z,15.27
2022-12-26T04:47:23.372Z,14.77
2022-12-26T04:50:09.407Z,14.13
2022-12-26T04:52:58.653Z,14.33
2022-12-26T04:55:28.441Z,14.77
2022-12-26T04:57:57.187Z,14.73
2022-12-26T05:00:29.375Z,14.53
2022-12-26T05:03:19.189Z,13.60
2022-12-26T05:06:10.161Z,12.93
2022-12-26T05:08:59.361Z,13.20
2022-12-26T05:11:28.777Z,12.93
2022-12-26T05:13:58.946Z,13.77
2022-12-26T05:16:55.747Z,13.27
2022-12-26T05:19:41.457Z,12.63
2022-12-26T05:22:30.500Z,13.50
2022-12-26T05:25:16.564Z,13.10
2022-12-26T05:27:59.935Z,13.87
2022-12-26T05:30:28.324Z,13.43
2022-12-26T05:33:15.711Z,14.23
2022-12-26T05:35:44.101Z,14.33
2022-12-26T05:38:12.647Z,14.60
2022-12-26T05:40:41.036Z,14.33
2022-12-26T05:43:09.322Z,14.87
2022-12-26T05:45:37.561Z,14.83
2022-12-26T05:48:07.630Z,14.83
2022-12-26T05:50:35.858Z,15.30
2022-12-26T05:53:04.357Z,15.33
2022-12-26T05:55:32.745Z,15.93
2022-12-26T05:58:01.981Z,16.57
2022-12-26T06:00:31.233Z,17.70
2022-12-26T06:03:02.024Z,17.57
2022-12-26T06:05:31.757Z,17.70
2022-12-26T06:07:59.945Z,17.93
2022-12-26T06:10:29.594Z,17.00
2022-12-26T06:12:58.193Z,17.90
2022-12-26T06:15:26.477Z,19.10
2022-12-26T06:17:56.548Z,17.67
2022-12-26T06:20:24.854Z,19.87
2022-12-26T06:22:54.545Z,19.23
2022-12-26T06:25:22.775Z,20.20
2022-12-26T06:27:51.082Z,20.97
2022-12-26T06:30:19.522Z,21.87
2022-12-26T06:32:47.925Z,21.20
2022-12-26T06:35:16.405Z,20.07
2022-12-26T06:37:44.604Z,20.90
2022-12-26T06:40:14.223Z,20.40
2022-12-26T06:42:42.462Z,20.13
2022-12-26T06:45:12.336Z,20.73
2022-12-26T06:47:40.549Z,19.70
2022-12-26T06:50:09.721Z,21.10
2022-12-26T06:52:37.944Z,20.53
2022-12-26T06:55:06.994Z,21.10
2022-12-26T06:57:36.741Z,18.63
2022-12-26T07:00:06.252Z,20.10
2022-12-26T07:02:34.674Z,19.63
2022-12-26T07:05:03.104Z,19.90
2022-12-26T07:07:31.400Z,18.87
2022-12-26T07:09:59.556Z,20.13
2022-12-26T07:12:27.827Z,18.37
2022-12-26T07:15:01.559Z,18.93
2022-12-26T07:17:31.779Z,19.33
2022-12-26T07:20:00.136Z,18.43
2022-12-26T07:22:29.288Z,18.33
2022-12-26T07:24:57.707Z,18.43
2022-12-26T07:27:26.011Z,18.83
2022-12-26T07:29:54.223Z,18.77
2022-12-26T07:32:23.845Z,19.53
2022-12-26T07:34:52.098Z,19.27
2022-12-26T07:37:20.356Z,19.80
2022-12-26T07:39:51.287Z,20.30
2022-12-26T07:42:25.112Z,20.67
2022-12-26T07:44:53.976Z,20.37
2022-12-26T07:47:23.620Z,21.13
2022-12-26T07:49:52.101Z,19.87
2022-12-26T07:52:21.318Z,20.33
2022-12-26T07:54:49.576Z,21.27
2022-12-26T08:00:08.187Z,21.13
2022-12-26T08:02:43.922Z,20.17
2022-12-26T08:05:12.375Z,21.57
2022-12-26T08:07:40.712Z,21.70
2022-12-26T08:10:09.824Z,21.33
2022-12-26T08:12:38.106Z,22.47
2022-12-26T08:15:07.552Z,21.60
2022-12-26T08:17:36.283Z,22.50
2022-12-26T08:20:07.381Z,22.77
2022-12-26T08:22:35.641Z,23.00
2022-12-26T08:25:04.156Z,23.23
2022-12-26T08:27:32.360Z,23.57
2022-12-26T08:30:00.662Z,22.93
2022-12-26T08:32:29.244Z,24.73
2022-12-26T08:34:58.828Z,25.00
2022-12-26T08:37:28.532Z,29.73
2022-12-26T08:39:56.839Z,23.73
2022-12-26T08:42:25.148Z,24.00
2022-12-26T08:44:53.563Z,24.43
2022-12-26T08:47:26.304Z,23.47
2022-12-26T08:49:54.823Z,23.40
2022-12-26T08:52:23.091Z,24.90
2022-12-26T08:54:53.653Z,24.35
2022-12-26T08:57:21.931Z,24.30
2022-12-26T08:59:50.776Z,24.38
2022-12-26T09:02:19.167Z,24.23
2022-12-26T09:04:47.609Z,24.00
2022-12-26T09:07:15.803Z,24.67
2022-12-26T09:09:44.060Z,23.63
2022-12-26T09:12:14.017Z,24.75
2022-12-26T09:14:42.206Z,24.27
2022-12-26T09:17:11.872Z,24.30
2022-12-26T09:19:40.332Z,23.37
2022-12-26T09:22:28.287Z,24.47
2022-12-26T09:25:00.416Z,22.83
2022-12-26T09:27:31.342Z,24.67
2022-12-26T09:29:59.737Z,23.93
2022-12-26T09:32:27.991Z,24.37
2022-12-26T09:34:56.185Z,22.80
2022-12-26T09:37:24.864Z,24.50
2022-12-26T09:39:53.249Z,23.40
2022-12-26T09:42:33.580Z,22.65
2022-12-26T09:45:14.594Z,23.23
2022-12-26T09:47:56.448Z,23.63
2022-12-26T09:50:30.972Z,21.37
2022-12-26T09:53:05.099Z,21.77
2022-12-26T09:55:43.502Z,21.07
2022-12-26T09:58:25.815Z,20.40
2022-12-26T10:01:02.646Z,20.83
2022-12-26T10:03:35.020Z,20.50
2022-12-26T10:06:16.074Z,20.77
2022-12-26T10:09:02.321Z,20.33
2022-12-26T10:11:54.954Z,20.80
2022-12-26T10:14:33.106Z,19.70
2022-12-26T10:17:10.323Z,19.10
2022-12-26T10:19:54.063Z,19.20
2022-12-26T10:23:00.113Z,19.33
2022-12-26T10:25:42.235Z,19.50
2022-12-26T10:28:23.096Z,19.15
2022-12-26T10:30:55.584Z,19.07
2022-12-26T10:33:40.467Z,19.37
2022-12-26T10:36:18.967Z,18.30
2022-12-26T10:38:51.963Z,18.20
2022-12-26T10:41:32.440Z,17.77
2022-12-26T10:44:00.962Z,18.17
2022-12-26T10:46:55.532Z,17.33
2022-12-26T10:49:28.602Z,17.98
2022-12-26T10:52:00.669Z,18.03
2022-12-26T10:54:31.065Z,18.57
2022-12-26T10:57:01.631Z,17.48
2022-12-26T10:59:42.231Z,18.00
2022-12-26T11:02:26.726Z,16.97
2022-12-26T11:08:08.521Z,16.73
2022-12-26T11:10:37.793Z,15.82
2022-12-26T11:13:18.499Z,16.35
2022-12-26T11:15:51.091Z,15.73
2022-12-26T11:18:28.614Z,14.90
2022-12-26T11:21:14.830Z,15.37
2022-12-26T11:23:43.073Z,15.03
2022-12-26T11:26:24.032Z,15.80
2022-12-26T11:29:08.047Z,14.70
2022-12-26T11:31:36.924Z,14.20
2022-12-26T11:34:10.943Z,13.50
2022-12-26T11:36:49.298Z,14.60
2022-12-26T11:39:26.961Z,14.35
2022-12-26T11:41:56.756Z,14.87
2022-12-26T11:44:29.468Z,14.37
2022-12-26T11:47:08.472Z,14.07
2022-12-26T11:49:42.071Z,14.27
2022-12-26T11:52:37.427Z,13.27
2022-12-26T11:55:33.440Z,14.18
2022-12-26T11:58:17.076Z,13.25
2022-12-26T12:01:05.712Z,12.83
2022-12-26T12:03:41.128Z,12.93
2022-12-26T12:06:46.255Z,13.00
2022-12-26T12:09:32.190Z,13.87
2022-12-26T12:12:15.299Z,13.15
2022-12-26T12:14:59.929Z,13.07
2022-12-26T12:17:37.989Z,13.53
2022-12-26T12:20:30.377Z,12.73
2022-12-26T12:23:24.633Z,13.07
2022-12-26T12:26:12.317Z,11.70
2022-12-26T12:29:32.062Z,12.50
2022-12-26T12:32:12.912Z,11.97
2022-12-26T12:35:17.690Z,11.03
2022-12-26T12:38:11.089Z,11.63
2022-12-26T12:40:55.521Z,11.77
2022-12-26T12:43:36.509Z,10.83
2022-12-26T12:46:17.463Z,11.73
2022-12-26T12:49:08.458Z,10.77
2022-12-26T12:51:51.382Z,11.63
2022-12-26T12:55:12.207Z,10.93
2022-12-26T12:57:48.231Z,10.07
2022-12-26T13:00:23.442Z,9.50
2022-12-26T13:03:00.966Z,9.13
2022-12-26T13:05:47.776Z,8.50
2022-12-26T13:08:24.072Z,7.40
2022-12-26T13:10:59.053Z,7.50
2022-12-26T13:13:33.566Z,7.17
2022-12-26T13:16:13.722Z,7.13
2022-12-26T13:18:51.772Z,6.53
2022-12-26T13:21:22.882Z,5.47
2022-12-26T13:24:17.153Z,4.93
2022-12-26T13:26:52.813Z,3.43
2022-12-26T13:29:38.507Z,1.83
2022-12-26T13:32:23.150Z,2.10
2022-12-26T13:34:53.723Z,2.07
2022-12-26T13:37:57.951Z,1.57
2022-12-26T13:40:31.132Z,2.07
2022-12-26T13:43:27.675Z,1.30
2022-12-26T13:45:58.094Z,1.63
2022-12-26T13:48:59.295Z,1.20
2022-12-26T13:51:52.844Z,1.47
2022-12-26T13:54:23.409Z,1.50
2022-12-26T13:57:37.370Z,1.47
2022-12-26T14:00:20.469Z,1.80
2022-12-26T14:03:46.339Z,1.70
2022-12-26T14:06:56.811Z,1.80
2022-12-26T14:10:08.183Z,2.03
2022-12-26T14:12:51.903Z,2.07
2022-12-26T14:15:49.567Z,1.70
2022-12-26T14:18:41.048Z,2.10
2022-12-26T14:21:40.820Z,1.60
2022-12-26T14:24:32.049Z,2.63
2022-12-26T14:27:30.984Z,1.60
2022-12-26T14:30:22.284Z,1.80
2022-12-26T14:33:15.125Z,2.03
2022-12-26T14:35:58.810Z,2.10
2022-12-26T14:38:44.293Z,2.07
2022-12-26T14:41:31.840Z,2.60
2022-12-26T14:44:16.622Z,2.20
2022-12-26T14:47:03.109Z,1.93
2022-12-26T14:49:42.027Z,2.50
2022-12-26T14:52:41.170Z,3.10
2022-12-26T14:55:51.893Z,2.40
2022-12-26T14:58:42.576Z,2.83
2022-12-26T15:01:49.692Z,2.10
2022-12-26T15:05:11.227Z,2.37
2022-12-26T15:08:29.855Z,2.53
2022-12-26T15:11:42.601Z,2.60
2022-12-26T15:15:01.735Z,2.20
2022-12-26T15:17:43.382Z,2.47
2022-12-26T15:21:15.218Z,2.50
2022-12-26T15:25:17.071Z,2.10
2022-12-26T15:28:11.976Z,2.27
2022-12-26T15:31:15.191Z,2.77
2022-12-26T15:33:51.480Z,2.73
2022-12-26T15:36:31.570Z,3.23
2022-12-26T15:39:16.285Z,2.80
2022-12-26T15:41:51.510Z,3.40
2022-12-26T15:44:29.998Z,4.70
2022-12-26T15:47:18.844Z,3.33
2022-12-26T15:50:03.925Z,4.10
2022-12-26T15:52:48.838Z,2.70
2022-12-26T15:56:04.076Z,3.20
2022-12-26T15:59:01.988Z,3.67
2022-12-26T16:01:40.858Z,3.30
2022-12-26T16:04:18.960Z,3.20
2022-12-26T16:07:09.078Z,2.97
2022-12-26T16:09:49.684Z,2.87
2022-12-26T16:12:26.454Z,3.17
2022-12-26T16:15:18.505Z,2.80
2022-12-26T16:17:48.816Z,2.87
2022-12-26T16:20:50.745Z,3.33
2022-12-26T16:23:23.057Z,3.37
2022-12-26T16:25:55.920Z,2.97
2022-12-26T16:28:28.845Z,2.70
2022-12-26T16:30:59.865Z,3.30
2022-12-26T16:33:32.397Z,3.10
2022-12-26T16:36:02.241Z,3.47
2022-12-26T16:38:32.835Z,3.10
2022-12-26T16:41:01.320Z,3.07
2022-12-26T16:43:34.441Z,3.33
2022-12-26T16:46:06.997Z,3.23
2022-12-26T16:48:38.021Z,3.67
2022-12-26T16:51:32.978Z,3.57
2022-12-26T16:54:18.813Z,2.97
2022-12-26T16:56:51.710Z,4.37
2022-12-26T16:59:24.826Z,3.53
2022-12-26T17:01:56.646Z,4.00
2022-12-26T17:04:27.860Z,3.03
2022-12-26T17:07:03.365Z,4.00
2022-12-26T17:09:40.572Z,2.73
2022-12-26T17:12:20.438Z,3.90
2022-12-26T17:14:50.304Z,3.33
2022-12-26T17:17:33.091Z,3.20
2022-12-26T17:20:35.028Z,3.30
2022-12-26T17:23:39.673Z,3.53
2022-12-26T17:26:30.697Z,3.60
2022-12-26T17:28:59.009Z,3.47
2022-12-26T17:31:36.868Z,3.90
2022-12-26T17:34:15.263Z,3.80
2022-12-26T17:37:17.643Z,3.67
2022-12-26T17:39:33.439Z,3.53
2022-12-26T17:42:03.153Z,3.33
2022-12-26T17:44:40.392Z,3.67
2022-12-26T17:47:20.168Z,3.80
2022-12-26T17:49:49.696Z,3.67
2022-12-26T17:52:21.727Z,3.70
2022-12-26T17:54:52.707Z,2.93
2022-12-26T17:57:25.185Z,3.30
2022-12-26T17:59:54.597Z,3.70
2022-12-26T18:02:23.509Z,3.93
2022-12-26T18:04:51.922Z,3.07
2022-12-26T18:07:30.523Z,3.43
2022-12-26T18:10:02.801Z,3.40
2022-12-26T18:12:31.106Z,4.60
2022-12-26T18:15:02.310Z,3.70
2022-12-26T18:17:34.191Z,3.60
2022-12-26T18:20:02.863Z,4.20
2022-12-26T18:22:31.226Z,3.80
2022-12-26T18:25:00.922Z,3.60
2022-12-26T18:27:32.390Z,3.80
2022-12-26T18:30:01.509Z,3.83
2022-12-26T18:32:32.875Z,4.03
2022-12-26T18:35:02.015Z,3.47
2022-12-26T18:37:31.698Z,5.40
2022-12-26T18:40:02.334Z,4.10
2022-12-26T18:42:30.669Z,3.63
2022-12-26T18:44:58.935Z,3.13
2022-12-26T18:47:27.106Z,4.43
2022-12-26T18:49:55.495Z,3.83
2022-12-26T18:52:23.769Z,4.40
2022-12-26T18:54:51.941Z,4.50
2022-12-26T18:57:21.851Z,4.77
2022-12-26T18:59:50.140Z,4.40
2022-12-26T19:02:20.372Z,4.23
2022-12-26T19:04:49.479Z,3.67
2022-12-26T19:07:20.163Z,4.13
2022-12-26T19:09:51.432Z,3.40
2022-12-26T19:12:21.028Z,3.80
2022-12-26T19:14:50.286Z,4.53
2022-12-26T19:17:19.085Z,3.53
2022-12-26T19:19:49.269Z,4.03
2022-12-26T19:22:17.701Z,3.50
2022-12-26T19:24:46.610Z,3.63
2022-12-26T19:27:14.889Z,4.50
2022-12-26T19:29:44.486Z,3.90
2022-12-26T19:32:12.755Z,3.93
2022-12-26T19:34:41.103Z,4.13
2022-12-26T19:37:09.677Z,3.70
2022-12-26T19:39:37.952Z,3.50
2022-12-26T19:42:06.296Z,3.33
2022-12-26T19:44:34.665Z,4.13
2022-12-26T19:47:10.958Z,3.53
2022-12-26T19:49:41.409Z,3.87
2022-12-26T19:52:10.299Z,3.13
2022-12-26T19:54:38.655Z,4.07
2022-12-26T19:57:07.012Z,3.87
2022-12-26T19:59:35.309Z,3.60
2022-12-26T20:02:05.729Z,3.90
2022-12-26T20:04:34.026Z,3.73
2022-12-26T20:07:02.364Z,3.23
2022-12-26T20:09:30.612Z,3.83
2022-12-26T20:11:59.148Z,4.20
2022-12-26T20:14:28.645Z,3.57
2022-12-26T20:17:07.247Z,4.00
2022-12-26T20:19:37.808Z,3.83
2022-12-26T20:22:07.687Z,3.40
2022-12-26T20:24:36.385Z,3.57
2022-12-26T20:27:05.233Z,3.80
2022-12-26T20:29:33.788Z,4.23
2022-12-26T20:32:02.098Z,3.40
2022-12-26T20:34:30.362Z,3.80
2022-12-26T20:36:59.957Z,3.60
2022-12-26T20:39:28.658Z,3.70
2022-12-26T20:41:56.931Z,3.40
2022-12-26T20:44:25.483Z,3.67
2022-12-26T20:46:53.988Z,3.73
2022-12-26T20:49:22.335Z,3.37
2022-12-26T20:51:50.652Z,3.20
2022-12-26T20:54:20.252Z,4.00
2022-12-26T20:56:49.379Z,3.83
2022-12-26T20:59:17.879Z,3.97
2022-12-26T21:01:46.744Z,3.83
2022-12-26T21:04:21.434Z,3.10
2022-12-26T21:06:50.740Z,3.13
2022-12-26T21:09:20.417Z,3.03
2022-12-26T21:11:48.743Z,3.03
2022-12-26T21:14:20.594Z,3.43
2022-12-26T21:16:52.074Z,3.23
2022-12-26T21:19:21.966Z,3.57
2022-12-26T21:21:53.846Z,3.30
2022-12-26T21:24:26.363Z,3.80
2022-12-26T21:26:55.870Z,3.23
2022-12-26T21:29:27.466Z,3.47
2022-12-26T21:31:57.306Z,3.10
2022-12-26T21:34:29.784Z,3.40
2022-12-26T21:37:16.336Z,3.57
2022-12-26T21:39:47.030Z,3.47
2022-12-26T21:42:15.311Z,3.67
2022-12-26T21:44:43.495Z,3.17
2022-12-26T21:47:12.285Z,3.70
2022-12-26T21:49:40.827Z,3.40
2022-12-26T21:52:09.457Z,3.40
2022-12-26T21:54:55.091Z,3.30
2022-12-26T21:57:25.727Z,3.83
2022-12-26T21:59:57.128Z,3.47
2022-12-26T22:02:44.978Z,3.10
2022-12-26T22:05:14.038Z,3.57
2022-12-26T22:07:42.419Z,3.60
2022-12-26T22:10:33.380Z,3.10
2022-12-26T22:13:02.919Z,3.80
2022-12-26T22:15:49.196Z,3.80
2022-12-26T22:18:17.698Z,3.20
2022-12-26T22:20:46.389Z,3.00
2022-12-26T22:23:15.510Z,3.20
2022-12-26T22:25:43.793Z,3.90
2022-12-26T22:28:14.791Z,3.30
2022-12-26T22:30:48.463Z,2.70
2022-12-26T22:33:17.169Z,3.13
2022-12-26T22:35:46.205Z,2.57
2022-12-26T22:38:15.086Z,4.27
2022-12-26T22:40:43.372Z,3.43
2022-12-26T22:43:12.945Z,3.43
2022-12-26T22:45:42.303Z,3.17
2022-12-26T22:48:10.667Z,3.57
2022-12-26T22:50:38.960Z,3.13
2022-12-26T22:53:07.188Z,3.57
2022-12-26T22:55:35.479Z,3.80
2022-12-26T22:58:03.695Z,3.03
2022-12-26T23:00:33.305Z,3.50
2022-12-26T23:03:01.843Z,3.20
2022-12-26T23:05:30.771Z,2.67
2022-12-26T23:07:59.745Z,3.07
2022-12-26T23:10:28.721Z,3.37
2022-12-26T23:12:57.921Z,2.87
2022-12-26T23:15:29.065Z,2.57
2022-12-26T23:18:33.181Z,3.60
2022-12-26T23:21:27.079Z,3.00
2022-12-26T23:23:55.345Z,2.80
2022-12-26T23:26:23.706Z,2.63
2022-12-26T23:29:09.514Z,2.83
2022-12-26T23:31:37.794Z,3.67
2022-12-26T23:34:07.545Z,3.57
2022-12-26T23:36:35.986Z,3.40
2022-12-26T23:39:04.605Z,2.87
2022-12-26T23:41:32.979Z,3.23
2022-12-26T23:44:01.222Z,2.80
2022-12-26T23:46:29.529Z,2.97
2022-12-26T23:48:58.182Z,3.20
2022-12-26T23:51:27.824Z,2.93
2022-12-26T23:53:56.091Z,3.10
2022-12-26T23:56:24.395Z,2.30
2022-12-26T23:58:52.578Z,3.37
